createdAt,value
2018-06-19T00:00:59.757Z,1015.20
2018-06-19T00:02:00.623Z,1015.19
2018-06-19T00:02:59.756Z,1015.22
2018-06-19T00:03:59.766Z,1015.17
2018-06-19T00:04:59.757Z,1015.18
2018-06-19T00:05:59.766Z,1015.16
2018-06-19T00:06:59.773Z,1015.14
2018-06-19T00:07:59.751Z,1015.20
2018-06-19T00:08:59.788Z,1015.19
2018-06-19T00:09:59.783Z,1015.19
2018-06-19T00:10:59.768Z,1015.14
2018-06-19T00:11:59.859Z,1015.18
2018-06-19T00:12:59.786Z,1015.18
2018-06-19T00:13:59.722Z,1015.26
2018-06-19T00:14:59.777Z,1015.28
2018-06-19T00:15:59.807Z,1015.25
2018-06-19T00:16:59.792Z,1015.23
2018-06-19T00:17:59.783Z,1015.21
2018-06-19T00:18:59.766Z,1015.24
2018-06-19T00:19:59.818Z,1015.24
2018-06-19T00:20:59.819Z,1015.26
2018-06-19T00:21:59.796Z,1015.22
2018-06-19T00:22:59.795Z,1015.22
2018-06-19T00:23:59.781Z,1015.20
2018-06-19T00:24:59.784Z,1015.23
2018-06-19T00:25:59.773Z,1015.24
2018-06-19T00:26:59.770Z,1015.25
2018-06-19T00:27:59.779Z,1015.28
2018-06-19T00:28:59.842Z,1015.27
2018-06-19T00:29:59.820Z,1015.27
2018-06-19T00:30:59.771Z,1015.28
2018-06-19T00:31:59.819Z,1015.20
2018-06-19T00:32:59.786Z,1015.23
2018-06-19T00:33:59.802Z,1015.25
2018-06-19T00:34:59.818Z,1015.26
2018-06-19T00:35:59.806Z,1015.23
2018-06-19T00:36:59.816Z,1015.27
2018-06-19T00:37:59.839Z,1015.30
2018-06-19T00:38:59.863Z,1015.27
2018-06-19T00:39:59.816Z,1015.36
2018-06-19T00:40:59.824Z,1015.32
2018-06-19T00:41:59.819Z,1015.36
2018-06-19T00:43:00.636Z,1015.37
2018-06-19T00:43:59.800Z,1015.37
2018-06-19T00:44:59.816Z,1015.36
2018-06-19T00:45:59.847Z,1015.37
2018-06-19T00:46:59.821Z,1015.31
2018-06-19T00:47:59.821Z,1015.34
2018-06-19T00:48:59.877Z,1015.31
2018-06-19T00:49:59.812Z,1015.29
2018-06-19T00:50:59.823Z,1015.32
2018-06-19T00:51:59.823Z,1015.37
2018-06-19T00:52:59.847Z,1015.35
2018-06-19T00:53:59.844Z,1015.38
2018-06-19T00:54:59.824Z,1015.34
2018-06-19T00:55:59.832Z,1015.34
2018-06-19T00:56:59.834Z,1015.38
2018-06-19T00:57:59.854Z,1015.38
2018-06-19T00:58:59.848Z,1015.39
2018-06-19T00:59:59.852Z,1015.42
2018-06-19T01:00:59.870Z,1015.43
2018-06-19T01:01:59.919Z,1015.43
2018-06-19T01:02:59.859Z,1015.37
2018-06-19T01:03:59.846Z,1015.40
2018-06-19T01:04:59.861Z,1015.39
2018-06-19T01:05:59.886Z,1015.37
2018-06-19T01:06:59.872Z,1015.38
2018-06-19T01:07:59.848Z,1015.40
2018-06-19T01:08:59.870Z,1015.42
2018-06-19T01:09:59.851Z,1015.40
2018-06-19T01:10:59.874Z,1015.40
2018-06-19T01:11:59.869Z,1015.42
2018-06-19T01:12:59.876Z,1015.38
2018-06-19T01:13:59.878Z,1015.36
2018-06-19T01:14:59.857Z,1015.36
2018-06-19T01:15:59.884Z,1015.38
2018-06-19T01:16:59.925Z,1015.38
2018-06-19T01:17:59.968Z,1015.30
2018-06-19T01:19:00.700Z,1015.35
2018-06-19T01:20:00.034Z,1015.31
2018-06-19T01:21:00.054Z,1015.28
2018-06-19T01:21:59.961Z,1015.27
2018-06-19T01:22:59.898Z,1015.24
2018-06-19T01:23:59.891Z,1015.26
2018-06-19T01:24:59.882Z,1015.25
2018-06-19T01:25:59.929Z,1015.25
2018-06-19T01:26:59.927Z,1015.25
2018-06-19T01:27:59.927Z,1015.28
2018-06-19T01:28:59.939Z,1015.26
2018-06-19T01:29:59.976Z,1015.26
2018-06-19T01:30:59.970Z,1015.23
2018-06-19T01:31:59.919Z,1015.21
2018-06-19T01:33:00.016Z,1015.23
2018-06-19T01:33:59.939Z,1015.21
2018-06-19T01:35:00.021Z,1015.17
2018-06-19T01:35:59.980Z,1015.21
2018-06-19T01:36:59.939Z,1015.20
2018-06-19T01:37:59.983Z,1015.17
2018-06-19T01:38:59.974Z,1015.23
2018-06-19T01:40:00.033Z,1015.21
2018-06-19T01:40:59.992Z,1015.23
2018-06-19T01:41:59.929Z,1015.25
2018-06-19T01:42:59.937Z,1015.24
2018-06-19T01:43:59.968Z,1015.28
2018-06-19T01:44:59.973Z,1015.25
2018-06-19T01:45:59.969Z,1015.26
2018-06-19T01:46:59.984Z,1015.25
2018-06-19T01:47:59.987Z,1015.31
2018-06-19T01:48:59.942Z,1015.32
2018-06-19T01:50:00.009Z,1015.29
2018-06-19T01:51:00.000Z,1015.30
2018-06-19T01:52:00.055Z,1015.31
2018-06-19T01:53:00.074Z,1015.25
2018-06-19T01:54:00.054Z,1015.27
2018-06-19T01:55:00.084Z,1015.27
2018-06-19T01:56:00.105Z,1015.26
2018-06-19T01:57:00.041Z,1015.30
2018-06-19T01:58:00.044Z,1015.28
2018-06-19T01:59:00.073Z,1015.30
2018-06-19T02:00:00.110Z,1015.40
2018-06-19T02:01:00.010Z,1015.33
2018-06-19T02:02:00.019Z,1015.36
2018-06-19T02:02:59.980Z,1015.34
2018-06-19T02:04:00.009Z,1015.33
2018-06-19T02:04:59.998Z,1015.33
2018-06-19T02:05:59.996Z,1015.27
2018-06-19T02:06:59.981Z,1015.29
2018-06-19T02:07:59.990Z,1015.28
2018-06-19T02:08:59.984Z,1015.25
2018-06-19T02:10:00.016Z,1015.30
2018-06-19T02:11:00.028Z,1015.30
2018-06-19T02:12:00.042Z,1015.29
2018-06-19T02:12:59.995Z,1015.27
2018-06-19T02:13:59.992Z,1015.31
2018-06-19T02:15:00.024Z,1015.29
2018-06-19T02:16:00.000Z,1015.26
2018-06-19T02:17:00.025Z,1015.24
2018-06-19T02:18:00.144Z,1015.27
2018-06-19T02:19:00.029Z,1015.24
2018-06-19T02:20:00.672Z,1015.25
2018-06-19T02:21:00.050Z,1015.21
2018-06-19T02:22:00.035Z,1015.23
2018-06-19T02:23:00.034Z,1015.20
2018-06-19T02:24:00.674Z,1015.21
2018-06-19T02:25:00.048Z,1015.28
2018-06-19T02:26:00.050Z,1015.34
2018-06-19T02:27:00.047Z,1015.28
2018-06-19T02:28:00.056Z,1015.31
2018-06-19T02:29:00.060Z,1015.29
2018-06-19T02:30:00.064Z,1015.24
2018-06-19T02:31:00.038Z,1015.26
2018-06-19T02:32:00.042Z,1015.21
2018-06-19T02:33:00.048Z,1015.23
2018-06-19T02:34:00.036Z,1015.28
2018-06-19T02:35:00.055Z,1015.24
2018-06-19T02:36:00.079Z,1015.29
2018-06-19T02:37:00.060Z,1015.25
2018-06-19T02:38:00.072Z,1015.28
2018-06-19T02:39:00.121Z,1015.24
2018-06-19T02:40:00.072Z,1015.26
2018-06-19T02:41:00.057Z,1015.19
2018-06-19T02:42:00.071Z,1015.29
2018-06-19T02:43:00.091Z,1015.28
2018-06-19T02:44:00.079Z,1015.29
2018-06-19T02:45:00.101Z,1015.24
2018-06-19T02:46:00.097Z,1015.28
2018-06-19T02:47:00.089Z,1015.26
2018-06-19T02:48:00.092Z,1015.27
2018-06-19T02:49:00.079Z,1015.30
2018-06-19T02:50:00.088Z,1015.28
2018-06-19T02:51:00.688Z,1015.30
2018-06-19T02:52:00.251Z,1015.27
2018-06-19T02:53:00.103Z,1015.26
2018-06-19T02:54:00.139Z,1015.28
2018-06-19T02:55:00.121Z,1015.25
2018-06-19T02:56:00.095Z,1015.26
2018-06-19T02:57:00.101Z,1015.28
2018-06-19T02:58:00.134Z,1015.32
2018-06-19T02:59:00.106Z,1015.29
2018-06-19T03:00:00.143Z,1015.28
2018-06-19T03:01:00.139Z,1015.28
2018-06-19T03:02:00.133Z,1015.28
2018-06-19T03:03:00.135Z,1015.25
2018-06-19T03:04:00.138Z,1015.24
2018-06-19T03:05:00.128Z,1015.23
2018-06-19T03:06:00.137Z,1015.27
2018-06-19T03:07:00.133Z,1015.26
2018-06-19T03:08:00.140Z,1015.29
2018-06-19T03:09:00.251Z,1015.29
2018-06-19T03:10:00.166Z,1015.28
2018-06-19T03:11:00.142Z,1015.36
2018-06-19T03:12:00.134Z,1015.35
2018-06-19T03:13:00.135Z,1015.33
2018-06-19T03:14:00.134Z,1015.34
2018-06-19T03:15:00.190Z,1015.37
2018-06-19T03:16:00.130Z,1015.40
2018-06-19T03:17:00.131Z,1015.42
2018-06-19T03:18:00.207Z,1015.42
2018-06-19T03:19:00.171Z,1015.43
2018-06-19T03:20:00.176Z,1015.46
2018-06-19T03:21:00.187Z,1015.39
2018-06-19T03:22:00.274Z,1015.43
2018-06-19T03:23:00.163Z,1015.52
2018-06-19T03:24:00.176Z,1015.47
2018-06-19T03:25:00.177Z,1015.47
2018-06-19T03:26:00.189Z,1015.50
2018-06-19T03:27:00.172Z,1015.52
2018-06-19T03:28:00.193Z,1015.55
2018-06-19T03:29:00.202Z,1015.55
2018-06-19T03:30:00.192Z,1015.55
2018-06-19T03:31:00.203Z,1015.56
2018-06-19T03:32:00.192Z,1015.54
2018-06-19T03:33:00.192Z,1015.58
2018-06-19T03:34:00.231Z,1015.56
2018-06-19T03:35:00.172Z,1015.59
2018-06-19T03:36:00.199Z,1015.54
2018-06-19T03:37:00.187Z,1015.60
2018-06-19T03:38:00.192Z,1015.56
2018-06-19T03:39:00.200Z,1015.61
2018-06-19T03:40:00.210Z,1015.62
2018-06-19T03:41:00.206Z,1015.67
2018-06-19T03:42:00.206Z,1015.61
2018-06-19T03:43:00.229Z,1015.66
2018-06-19T03:44:00.703Z,1015.62
2018-06-19T03:45:00.221Z,1015.60
2018-06-19T03:46:00.243Z,1015.67
2018-06-19T03:47:00.232Z,1015.67
2018-06-19T03:48:00.236Z,1015.66
2018-06-19T03:49:00.248Z,1015.71
2018-06-19T03:50:00.245Z,1015.73
2018-06-19T03:51:00.239Z,1015.72
2018-06-19T03:52:00.228Z,1015.77
2018-06-19T03:53:00.240Z,1015.77
2018-06-19T03:54:00.281Z,1015.74
2018-06-19T03:55:00.291Z,1015.76
2018-06-19T03:56:00.255Z,1015.79
2018-06-19T03:57:00.229Z,1015.81
2018-06-19T03:58:01.833Z,1015.75
2018-06-19T03:59:00.259Z,1015.80
2018-06-19T04:00:00.245Z,1015.82
2018-06-19T04:01:00.254Z,1015.77
2018-06-19T04:02:00.306Z,1015.79
2018-06-19T04:03:00.274Z,1015.76
2018-06-19T04:04:00.267Z,1015.81
2018-06-19T04:05:00.275Z,1015.88
2018-06-19T04:06:00.325Z,1015.89
2018-06-19T04:07:00.309Z,1015.90
2018-06-19T04:08:00.297Z,1015.90
2018-06-19T04:09:00.312Z,1015.88
2018-06-19T04:10:00.291Z,1015.86
2018-06-19T04:11:00.272Z,1015.86
2018-06-19T04:12:00.288Z,1015.82
2018-06-19T04:13:00.259Z,1015.87
2018-06-19T04:14:00.278Z,1015.90
2018-06-19T04:15:00.267Z,1015.94
2018-06-19T04:16:00.310Z,1015.92
2018-06-19T04:17:00.296Z,1015.87
2018-06-19T04:18:00.344Z,1015.91
2018-06-19T04:19:00.291Z,1015.87
2018-06-19T04:20:00.308Z,1015.87
2018-06-19T04:21:00.308Z,1015.88
2018-06-19T04:22:01.217Z,1015.83
2018-06-19T04:23:00.324Z,1015.90
2018-06-19T04:24:00.290Z,1015.90
2018-06-19T04:25:00.329Z,1015.87
2018-06-19T04:26:00.343Z,1015.86
2018-06-19T04:27:00.304Z,1015.87
2018-06-19T04:28:00.309Z,1015.86
2018-06-19T04:29:00.324Z,1015.86
2018-06-19T04:30:00.337Z,1015.85
2018-06-19T04:31:00.328Z,1015.85
2018-06-19T04:32:00.333Z,1015.86
2018-06-19T04:33:00.354Z,1015.90
2018-06-19T04:34:00.332Z,1015.85
2018-06-19T04:35:00.313Z,1015.89
2018-06-19T04:36:00.338Z,1015.92
2018-06-19T04:37:00.361Z,1015.93
2018-06-19T04:38:00.353Z,1015.94
2018-06-19T04:39:00.393Z,1016.01
2018-06-19T04:40:00.370Z,1016.03
2018-06-19T04:41:00.322Z,1016.03
2018-06-19T04:42:00.391Z,1016.06
2018-06-19T04:43:00.352Z,1016.07
2018-06-19T04:44:00.444Z,1016.08
2018-06-19T04:45:00.363Z,1016.08
2018-06-19T04:46:00.408Z,1016.03
2018-06-19T04:47:00.374Z,1016.08
2018-06-19T04:48:00.378Z,1016.03
2018-06-19T04:49:00.350Z,1016.08
2018-06-19T04:50:02.333Z,1016.04
2018-06-19T04:51:00.366Z,1016.04
2018-06-19T04:52:00.408Z,1016.05
2018-06-19T04:53:01.230Z,1016.14
2018-06-19T04:54:00.377Z,1016.09
2018-06-19T04:55:00.369Z,1016.06
2018-06-19T04:56:00.376Z,1016.03
2018-06-19T04:57:00.420Z,1016.07
2018-06-19T04:58:00.431Z,1016.08
2018-06-19T04:59:00.430Z,1016.05
2018-06-19T05:00:00.451Z,1016.13
2018-06-19T05:01:00.389Z,1016.11
2018-06-19T05:02:00.417Z,1016.10
2018-06-19T05:03:00.392Z,1016.09
2018-06-19T05:04:00.399Z,1016.08
2018-06-19T05:05:00.388Z,1016.07
2018-06-19T05:06:00.406Z,1016.10
2018-06-19T05:07:00.382Z,1016.12
2018-06-19T05:08:00.426Z,1016.08
2018-06-19T05:09:00.409Z,1016.08
2018-06-19T05:10:00.395Z,1016.10
2018-06-19T05:11:00.403Z,1016.10
2018-06-19T05:12:00.411Z,1016.10
2018-06-19T05:13:00.428Z,1016.13
2018-06-19T05:14:00.420Z,1016.19
2018-06-19T05:15:00.429Z,1016.22
2018-06-19T05:16:00.453Z,1016.25
2018-06-19T05:17:00.495Z,1016.27
2018-06-19T05:18:00.408Z,1016.23
2018-06-19T05:19:00.438Z,1016.26
2018-06-19T05:20:00.483Z,1016.25
2018-06-19T05:21:00.451Z,1016.27
2018-06-19T05:22:00.472Z,1016.30
2018-06-19T05:23:00.449Z,1016.32
2018-06-19T05:24:00.443Z,1016.31
2018-06-19T05:25:00.470Z,1016.32
2018-06-19T05:26:00.487Z,1016.28
2018-06-19T05:27:00.457Z,1016.30
2018-06-19T05:28:00.497Z,1016.29
2018-06-19T05:29:00.458Z,1016.31
2018-06-19T05:30:00.471Z,1016.29
2018-06-19T05:31:00.480Z,1016.31
2018-06-19T05:32:00.451Z,1016.33
2018-06-19T05:33:00.473Z,1016.32
2018-06-19T05:34:00.486Z,1016.29
2018-06-19T05:35:00.501Z,1016.31
2018-06-19T05:36:00.530Z,1016.35
2018-06-19T05:37:00.459Z,1016.38
2018-06-19T05:38:00.460Z,1016.35
2018-06-19T05:39:00.508Z,1016.35
2018-06-19T05:40:00.490Z,1016.38
2018-06-19T05:41:00.491Z,1016.36
2018-06-19T05:42:00.502Z,1016.37
2018-06-19T05:43:00.481Z,1016.37
2018-06-19T05:44:00.518Z,1016.41
2018-06-19T05:45:00.492Z,1016.42
2018-06-19T05:46:00.518Z,1016.41
2018-06-19T05:47:00.501Z,1016.40
2018-06-19T05:48:00.514Z,1016.46
2018-06-19T05:49:00.522Z,1016.49
2018-06-19T05:50:00.521Z,1016.51
2018-06-19T05:51:00.602Z,1016.52
2018-06-19T05:52:00.537Z,1016.53
2018-06-19T05:53:00.517Z,1016.59
2018-06-19T05:54:00.525Z,1016.56
2018-06-19T05:55:00.521Z,1016.57
2018-06-19T05:56:00.563Z,1016.62
2018-06-19T05:57:00.527Z,1016.65
2018-06-19T05:58:00.548Z,1016.58
2018-06-19T05:59:00.560Z,1016.65
2018-06-19T06:00:01.258Z,1016.64
2018-06-19T06:01:00.540Z,1016.69
2018-06-19T06:02:00.696Z,1016.66
2018-06-19T06:03:01.253Z,1016.63
2018-06-19T06:04:00.594Z,1016.66
2018-06-19T06:05:00.668Z,1016.66
2018-06-19T06:06:00.562Z,1016.70
2018-06-19T06:07:00.566Z,1016.72
2018-06-19T06:08:00.565Z,1016.70
2018-06-19T06:09:00.574Z,1016.70
2018-06-19T06:10:00.574Z,1016.70
2018-06-19T06:11:00.558Z,1016.70
2018-06-19T06:12:00.556Z,1016.74
2018-06-19T06:13:00.564Z,1016.75
2018-06-19T06:14:00.592Z,1016.74
2018-06-19T06:15:00.557Z,1016.71
2018-06-19T06:16:00.572Z,1016.78
2018-06-19T06:17:00.578Z,1016.78
2018-06-19T06:18:00.561Z,1016.82
2018-06-19T06:19:00.565Z,1016.81
2018-06-19T06:20:00.607Z,1016.84
2018-06-19T06:21:00.607Z,1016.89
2018-06-19T06:22:00.641Z,1016.80
2018-06-19T06:23:00.612Z,1016.78
2018-06-19T06:24:00.666Z,1016.82
2018-06-19T06:25:00.588Z,1016.87
2018-06-19T06:26:00.592Z,1016.92
2018-06-19T06:27:00.569Z,1016.94
2018-06-19T06:28:02.408Z,1017.01
2018-06-19T06:29:00.627Z,1017.01
2018-06-19T06:30:00.595Z,1017.02
2018-06-19T06:31:00.678Z,1017.06
2018-06-19T06:32:00.609Z,1017.05
2018-06-19T06:33:00.603Z,1017.10
2018-06-19T06:34:00.601Z,1017.01
2018-06-19T06:35:00.604Z,1017.03
2018-06-19T06:36:00.644Z,1017.06
2018-06-19T06:37:00.639Z,1017.08
2018-06-19T06:38:00.639Z,1017.09
2018-06-19T06:39:00.702Z,1017.14
2018-06-19T06:40:00.636Z,1017.16
2018-06-19T06:41:00.658Z,1017.17
2018-06-19T06:42:00.627Z,1017.19
2018-06-19T06:43:00.750Z,1017.17
2018-06-19T06:44:00.681Z,1017.13
2018-06-19T06:45:00.687Z,1017.15
2018-06-19T06:46:00.653Z,1017.15
2018-06-19T06:47:00.661Z,1017.27
2018-06-19T06:48:00.690Z,1017.19
2018-06-19T06:49:00.668Z,1017.21
2018-06-19T06:50:02.361Z,1017.14
2018-06-19T06:51:00.642Z,1017.19
2018-06-19T06:52:00.689Z,1017.26
2018-06-19T06:53:00.680Z,1017.26
2018-06-19T06:54:00.696Z,1017.24
2018-06-19T06:55:00.798Z,1017.50
2018-06-19T06:56:00.703Z,1017.31
2018-06-19T06:57:00.707Z,1017.16
2018-06-19T06:58:00.821Z,1017.13
2018-06-19T06:59:00.672Z,1017.10
2018-06-19T07:00:00.674Z,1017.12
2018-06-19T07:01:00.731Z,1017.13
2018-06-19T07:02:00.715Z,1017.12
2018-06-19T07:03:00.705Z,1017.16
2018-06-19T07:04:00.709Z,1017.19
2018-06-19T07:05:00.693Z,1017.29
2018-06-19T07:06:00.708Z,1017.10
2018-06-19T07:07:00.711Z,1017.18
2018-06-19T07:08:02.071Z,1017.22
2018-06-19T07:09:00.749Z,1017.14
2018-06-19T07:10:00.739Z,1017.21
2018-06-19T07:11:00.717Z,1017.26
2018-06-19T07:12:00.766Z,1017.25
2018-06-19T07:13:00.734Z,1017.28
2018-06-19T07:14:00.727Z,1017.27
2018-06-19T07:15:00.743Z,1017.28
2018-06-19T07:16:00.804Z,1017.38
2018-06-19T07:17:00.728Z,1017.49
2018-06-19T07:18:00.806Z,1017.49
2018-06-19T07:19:00.888Z,1017.53
2018-06-19T07:20:00.967Z,1017.33
2018-06-19T07:21:00.746Z,1017.42
2018-06-19T07:22:01.292Z,1017.46
2018-06-19T07:23:00.775Z,1017.42
2018-06-19T07:24:00.764Z,1017.43
2018-06-19T07:25:00.761Z,1017.41
2018-06-19T07:26:00.819Z,1017.37
2018-06-19T07:27:00.778Z,1017.42
2018-06-19T07:28:00.828Z,1017.40
2018-06-19T07:29:02.390Z,1017.40
2018-06-19T07:30:02.372Z,1017.45
2018-06-19T07:31:00.793Z,1017.43
2018-06-19T07:32:01.399Z,1017.43
2018-06-19T07:33:00.869Z,1017.51
2018-06-19T07:34:00.990Z,1017.48
2018-06-19T07:35:00.826Z,1017.46
2018-06-19T07:36:00.794Z,1017.46
2018-06-19T07:37:02.430Z,1017.54
2018-06-19T07:38:01.044Z,1017.50
2018-06-19T07:39:00.814Z,1017.53
2018-06-19T07:40:01.021Z,1017.55
2018-06-19T07:41:01.007Z,1017.62
2018-06-19T07:42:00.840Z,1017.60
2018-06-19T07:43:00.869Z,1017.51
2018-06-19T07:44:00.838Z,1017.61
2018-06-19T07:45:00.818Z,1017.66
2018-06-19T07:46:08.523Z,1017.61
2018-06-19T07:48:24.479Z,1017.55
2018-06-19T22:01:12.239Z,1018.61
2018-06-19T22:01:59.126Z,1018.60
2018-06-19T22:02:59.103Z,1018.60
2018-06-19T22:04:15.583Z,1018.58
2018-06-19T22:04:59.056Z,1018.60
2018-06-19T22:05:59.051Z,1018.60
2018-06-19T22:06:59.090Z,1018.56
2018-06-19T22:07:59.091Z,1018.57
2018-06-19T22:08:59.098Z,1018.54
2018-06-19T22:09:59.070Z,1018.54
2018-06-19T22:10:59.104Z,1018.53
2018-06-19T22:11:59.089Z,1018.49
2018-06-19T22:12:59.167Z,1018.54
2018-06-19T22:13:59.152Z,1018.53
2018-06-19T22:14:59.078Z,1018.52
2018-06-19T22:15:59.142Z,1018.56
2018-06-19T22:16:59.144Z,1018.59
2018-06-19T22:17:59.116Z,1018.56
2018-06-19T22:18:59.101Z,1018.55
2018-06-19T22:19:59.107Z,1018.55
2018-06-19T22:20:59.104Z,1018.53
2018-06-19T22:21:59.112Z,1018.50
2018-06-19T22:22:59.103Z,1018.53
2018-06-19T22:23:59.101Z,1018.51
2018-06-19T22:24:59.110Z,1018.53
2018-06-19T22:25:59.113Z,1018.50
2018-06-19T22:26:59.119Z,1018.51
2018-06-19T22:27:59.125Z,1018.51
2018-06-19T22:28:59.123Z,1018.52
2018-06-19T22:29:59.153Z,1018.46
2018-06-19T22:30:59.125Z,1018.49
2018-06-19T22:31:59.127Z,1018.49
2018-06-19T22:32:59.153Z,1018.46
2018-06-19T22:33:59.131Z,1018.48
2018-06-19T22:34:59.137Z,1018.45
2018-06-19T22:35:59.144Z,1018.45
2018-06-19T22:36:59.168Z,1018.44
2018-06-19T22:37:59.138Z,1018.42
2018-06-19T22:38:59.153Z,1018.47
2018-06-19T22:39:59.150Z,1018.44
2018-06-19T22:40:59.188Z,1018.44
2018-06-19T22:41:59.223Z,1018.42
2018-06-19T22:42:59.174Z,1018.46
2018-06-19T22:43:59.249Z,1018.45
2018-06-19T22:44:59.180Z,1018.45
2018-06-19T22:45:59.208Z,1018.46
2018-06-19T22:46:59.189Z,1018.46
2018-06-19T22:47:59.213Z,1018.48
2018-06-19T22:48:59.194Z,1018.47
2018-06-19T22:49:59.189Z,1018.48
2018-06-19T22:50:59.190Z,1018.48
2018-06-19T22:51:59.187Z,1018.48
2018-06-19T22:52:59.198Z,1018.50
2018-06-19T22:53:59.200Z,1018.51
2018-06-19T22:54:59.234Z,1018.52
2018-06-19T22:55:59.270Z,1018.51
2018-06-19T22:56:59.212Z,1018.50
2018-06-19T22:57:59.227Z,1018.52
2018-06-19T22:58:59.204Z,1018.53
2018-06-19T22:59:59.216Z,1018.51
2018-06-19T23:00:59.339Z,1018.49
2018-06-19T23:01:59.212Z,1018.50
2018-06-19T23:02:59.234Z,1018.47
2018-06-19T23:03:59.259Z,1018.51
2018-06-19T23:04:59.234Z,1018.47
2018-06-19T23:05:59.260Z,1018.54
2018-06-19T23:06:59.278Z,1018.53
2018-06-19T23:07:59.248Z,1018.52
2018-06-19T23:08:59.244Z,1018.51
2018-06-19T23:09:59.265Z,1018.54
2018-06-19T23:10:59.303Z,1018.55
2018-06-19T23:11:59.283Z,1018.50
2018-06-19T23:12:59.251Z,1018.49
2018-06-19T23:13:59.277Z,1018.51
2018-06-19T23:14:59.295Z,1018.54
2018-06-19T23:15:59.264Z,1018.53
2018-06-19T23:16:59.263Z,1018.55
2018-06-19T23:17:59.268Z,1018.52
2018-06-19T23:18:59.303Z,1018.55
2018-06-19T23:19:59.291Z,1018.55
2018-06-19T23:20:59.296Z,1018.56
2018-06-19T23:21:59.308Z,1018.55
2018-06-19T23:22:59.366Z,1018.53
2018-06-19T23:23:59.357Z,1018.51
2018-06-19T23:24:59.316Z,1018.47
2018-06-19T23:25:59.336Z,1018.43
2018-06-19T23:26:59.319Z,1018.41
2018-06-19T23:27:59.335Z,1018.42
2018-06-19T23:28:59.328Z,1018.41
2018-06-19T23:29:59.332Z,1018.45
2018-06-19T23:30:59.347Z,1018.40
2018-06-19T23:31:59.354Z,1018.43
2018-06-19T23:32:59.382Z,1018.42
2018-06-19T23:33:59.376Z,1018.42
2018-06-19T23:34:59.374Z,1018.38
2018-06-19T23:35:59.389Z,1018.40
2018-06-19T23:36:59.383Z,1018.39
2018-06-19T23:37:59.354Z,1018.38
2018-06-19T23:38:59.390Z,1018.38
2018-06-19T23:39:59.360Z,1018.41
2018-06-19T23:40:59.378Z,1018.36
2018-06-19T23:41:59.397Z,1018.41
2018-06-19T23:42:59.416Z,1018.40
2018-06-19T23:43:59.408Z,1018.40
2018-06-19T23:44:59.404Z,1018.39
2018-06-19T23:45:59.451Z,1018.38
2018-06-19T23:46:59.403Z,1018.37
2018-06-19T23:47:59.400Z,1018.34
2018-06-19T23:48:59.374Z,1018.37
2018-06-19T23:49:59.404Z,1018.35
2018-06-19T23:50:59.438Z,1018.36
2018-06-19T23:51:59.429Z,1018.35
2018-06-19T23:52:59.395Z,1018.34
2018-06-19T23:53:59.458Z,1018.36
2018-06-19T23:54:59.429Z,1018.32
2018-06-19T23:55:59.534Z,1018.36
2018-06-19T23:56:59.391Z,1018.29
2018-06-19T23:57:59.399Z,1018.29
2018-06-19T23:58:59.437Z,1018.32
2018-06-19T23:59:59.471Z,1018.31
